createdAt,value
2017-08-31T00:02:06.521Z,22.80
2017-08-31T00:04:34.000Z,22.80
2017-08-31T00:07:01.489Z,22.82
2017-08-31T00:09:28.986Z,22.81
2017-08-31T00:11:56.473Z,22.72
2017-08-31T00:14:23.962Z,22.69
2017-08-31T00:16:51.421Z,22.71
2017-08-31T00:19:18.910Z,22.60
2017-08-31T00:21:46.366Z,22.55
2017-08-31T00:24:13.862Z,22.58
2017-08-31T00:26:41.317Z,22.45
2017-08-31T00:29:08.790Z,22.57
2017-08-31T00:31:36.239Z,22.56
2017-08-31T00:34:03.705Z,22.52
2017-08-31T00:36:31.176Z,22.37
2017-08-31T00:38:58.633Z,22.52
2017-08-31T00:41:26.126Z,22.50
2017-08-31T00:43:53.579Z,22.53
2017-08-31T00:46:21.090Z,22.65
2017-08-31T00:48:48.558Z,22.69
2017-08-31T00:51:16.055Z,22.70
2017-08-31T00:53:43.515Z,22.74
2017-08-31T00:56:12.007Z,22.69
2017-08-31T00:58:39.494Z,22.69
2017-08-31T01:01:06.941Z,22.72
2017-08-31T01:03:34.439Z,22.65
2017-08-31T01:06:01.898Z,22.63
2017-08-31T01:08:29.393Z,22.60
2017-08-31T01:10:56.862Z,22.68
2017-08-31T01:13:24.346Z,22.69
2017-08-31T01:15:51.816Z,22.69
2017-08-31T01:18:19.311Z,22.74
2017-08-31T01:20:46.799Z,22.75
2017-08-31T01:23:14.273Z,22.61
2017-08-31T01:25:41.726Z,22.55
2017-08-31T01:28:09.213Z,22.66
2017-08-31T01:30:36.698Z,22.61
2017-08-31T01:33:04.141Z,22.61
2017-08-31T01:35:31.636Z,22.58
2017-08-31T01:37:59.106Z,22.58
2017-08-31T01:40:26.594Z,22.61
2017-08-31T01:42:54.077Z,22.61
2017-08-31T01:45:21.567Z,22.55
2017-08-31T01:47:49.050Z,22.59
2017-08-31T01:50:16.524Z,22.72
2017-08-31T01:52:43.990Z,22.79
2017-08-31T01:55:11.490Z,22.81
2017-08-31T01:57:38.938Z,22.74
2017-08-31T02:00:06.421Z,22.73
2017-08-31T02:02:33.917Z,22.76
2017-08-31T02:05:01.391Z,22.74
2017-08-31T02:07:28.873Z,22.85
2017-08-31T02:09:56.335Z,22.87
2017-08-31T02:12:23.859Z,22.84
2017-08-31T02:14:51.312Z,22.86
2017-08-31T02:17:18.801Z,22.83
2017-08-31T02:19:46.569Z,22.78
2017-08-31T02:22:14.058Z,22.73
2017-08-31T02:24:41.557Z,22.78
2017-08-31T02:27:09.904Z,22.76
2017-08-31T02:29:37.420Z,22.82
2017-08-31T02:32:04.946Z,22.51
2017-08-31T02:34:32.434Z,22.70
2017-08-31T02:36:59.898Z,22.24
2017-08-31T02:39:27.393Z,22.54
2017-08-31T02:41:54.879Z,22.42
2017-08-31T02:44:22.476Z,22.44
2017-08-31T02:46:49.920Z,22.42
2017-08-31T02:49:17.375Z,22.44
2017-08-31T02:51:44.902Z,22.44
2017-08-31T02:54:12.360Z,22.52
2017-08-31T02:56:39.868Z,22.53
2017-08-31T02:59:07.339Z,22.54
2017-08-31T03:01:34.860Z,22.46
2017-08-31T03:04:02.333Z,22.38
2017-08-31T03:06:29.847Z,22.37
2017-08-31T03:08:57.309Z,22.36
2017-08-31T03:11:24.822Z,22.42
2017-08-31T03:13:52.308Z,22.46
2017-08-31T03:16:19.913Z,22.50
2017-08-31T03:18:47.374Z,22.55
2017-08-31T03:21:14.829Z,22.50
2017-08-31T03:23:42.332Z,22.52
2017-08-31T03:26:09.802Z,22.51
2017-08-31T03:28:37.304Z,22.45
2017-08-31T03:31:04.767Z,22.47
2017-08-31T03:33:32.255Z,22.51
2017-08-31T03:35:59.741Z,22.18
2017-08-31T03:38:27.305Z,22.39
2017-08-31T03:40:54.780Z,22.32
2017-08-31T03:43:22.293Z,22.29
2017-08-31T03:45:49.786Z,22.32
2017-08-31T03:48:17.267Z,22.32
2017-08-31T03:50:44.844Z,22.36
2017-08-31T03:53:12.311Z,22.32
2017-08-31T03:55:39.792Z,22.35
2017-08-31T03:58:07.267Z,22.44
2017-08-31T04:00:34.789Z,22.18
2017-08-31T04:03:02.259Z,22.51
2017-08-31T04:05:29.740Z,22.46
2017-08-31T04:07:57.210Z,22.52
2017-08-31T04:10:24.718Z,22.50
2017-08-31T04:12:52.176Z,22.51
2017-08-31T04:15:19.723Z,22.50
2017-08-31T04:17:47.183Z,22.51
2017-08-31T04:20:14.651Z,22.48
2017-08-31T04:22:42.144Z,22.48
2017-08-31T04:25:09.665Z,22.12
2017-08-31T04:27:37.690Z,22.29
2017-08-31T04:30:05.778Z,22.31
2017-08-31T04:32:33.261Z,22.35
2017-08-31T04:35:00.710Z,22.32
2017-08-31T04:37:28.194Z,22.34
2017-08-31T04:39:55.662Z,22.36
2017-08-31T04:42:23.286Z,22.40
2017-08-31T04:44:50.762Z,22.46
2017-08-31T04:47:18.247Z,22.45
2017-08-31T04:49:45.728Z,22.46
2017-08-31T04:52:13.192Z,22.41
2017-08-31T04:54:40.670Z,22.32
2017-08-31T04:57:08.621Z,22.28
2017-08-31T04:59:36.108Z,22.28
2017-08-31T05:02:03.585Z,22.32
2017-08-31T05:04:31.097Z,22.35
2017-08-31T05:06:58.595Z,22.32
2017-08-31T05:09:26.089Z,22.26
2017-08-31T05:11:53.549Z,22.13
2017-08-31T05:14:21.158Z,22.21
2017-08-31T05:16:48.645Z,22.22
2017-08-31T05:19:16.111Z,22.18
2017-08-31T05:21:43.646Z,22.08
2017-08-31T05:24:11.137Z,22.02
2017-08-31T05:26:38.623Z,21.88
2017-08-31T05:29:06.110Z,21.83
2017-08-31T05:31:33.593Z,21.86
2017-08-31T05:34:01.106Z,21.85
2017-08-31T05:36:28.603Z,21.73
2017-08-31T05:38:56.094Z,21.58
2017-08-31T05:41:23.594Z,21.47
2017-08-31T05:43:51.074Z,21.45
2017-08-31T05:46:18.562Z,21.49
2017-08-31T05:48:46.040Z,21.50
2017-08-31T05:51:13.550Z,21.50
2017-08-31T05:53:41.046Z,21.41
2017-08-31T05:56:08.560Z,21.34
2017-08-31T05:58:36.046Z,21.27
2017-08-31T06:01:03.522Z,21.29
2017-08-31T06:03:31.053Z,21.31
2017-08-31T06:05:58.553Z,21.31
2017-08-31T06:08:26.054Z,21.24
2017-08-31T06:10:53.538Z,21.22
2017-08-31T06:13:21.033Z,21.25
2017-08-31T06:15:48.500Z,21.32
2017-08-31T06:18:16.046Z,21.42
2017-08-31T06:20:43.543Z,21.38
2017-08-31T06:23:11.048Z,21.42
2017-08-31T06:25:38.530Z,21.52
2017-08-31T06:28:06.079Z,21.50
2017-08-31T06:30:33.555Z,21.47
2017-08-31T06:33:01.042Z,21.46
2017-08-31T06:35:28.522Z,21.48
2017-08-31T06:37:55.995Z,21.54
2017-08-31T06:40:23.504Z,21.45
2017-08-31T06:42:51.008Z,21.46
2017-08-31T06:45:18.494Z,21.39
2017-08-31T06:47:45.987Z,21.35
2017-08-31T06:50:13.514Z,21.46
2017-08-31T06:52:40.992Z,21.50
2017-08-31T06:55:08.507Z,21.36
2017-08-31T06:57:36.141Z,21.28
2017-08-31T07:00:03.634Z,21.26
2017-08-31T07:02:31.120Z,21.29
2017-08-31T07:04:58.622Z,21.21
2017-08-31T07:07:26.078Z,21.22
2017-08-31T07:09:53.561Z,21.21
2017-08-31T07:12:21.058Z,21.28
2017-08-31T07:14:48.538Z,21.17
2017-08-31T07:17:16.038Z,21.13
2017-08-31T07:19:43.492Z,21.09
2017-08-31T07:22:10.997Z,21.00
2017-08-31T07:24:38.503Z,20.96
2017-08-31T07:27:06.023Z,20.83
2017-08-31T07:29:33.593Z,20.78
2017-08-31T07:32:01.064Z,20.73
2017-08-31T07:34:29.482Z,20.59
2017-08-31T07:36:57.518Z,20.56
2017-08-31T07:39:25.061Z,20.63
2017-08-31T07:41:52.518Z,20.68
2017-08-31T07:44:20.024Z,20.65
2017-08-31T07:46:47.500Z,20.59
2017-08-31T07:49:15.002Z,20.64
2017-08-31T07:51:42.484Z,20.57
2017-08-31T07:54:10.066Z,20.75
2017-08-31T07:56:37.618Z,20.82
2017-08-31T07:59:05.435Z,20.80
2017-08-31T08:01:32.930Z,20.86
2017-08-31T08:04:00.427Z,20.90
2017-08-31T08:06:27.890Z,20.88
2017-08-31T08:08:55.395Z,20.84
2017-08-31T08:11:22.928Z,20.69
2017-08-31T08:13:50.443Z,20.64
2017-08-31T08:16:17.948Z,20.79
2017-08-31T08:18:45.440Z,20.84
2017-08-31T08:21:12.936Z,20.76
2017-08-31T08:23:40.422Z,20.49
2017-08-31T08:26:08.997Z,20.29
2017-08-31T08:28:36.456Z,20.52
2017-08-31T08:31:04.792Z,20.37
2017-08-31T08:33:32.284Z,20.45
2017-08-31T08:35:59.795Z,20.20
2017-08-31T08:38:27.937Z,20.23
2017-08-31T08:40:55.417Z,20.23
2017-08-31T08:43:22.929Z,20.22
2017-08-31T08:45:51.179Z,20.35
2017-08-31T08:48:18.653Z,20.48
2017-08-31T08:50:46.271Z,20.57
2017-08-31T08:53:13.719Z,20.64
2017-08-31T08:55:41.286Z,20.81
2017-08-31T08:58:08.764Z,20.83
2017-08-31T09:00:37.091Z,20.84
2017-08-31T09:03:05.291Z,20.69
2017-08-31T09:05:32.803Z,20.69
2017-08-31T09:08:00.368Z,20.57
2017-08-31T09:10:27.854Z,20.26
2017-08-31T09:12:55.346Z,20.34
2017-08-31T09:15:22.859Z,20.49
2017-08-31T09:17:50.358Z,20.42
2017-08-31T09:20:17.847Z,20.61
2017-08-31T09:22:45.359Z,20.58
2017-08-31T09:25:13.274Z,20.81
2017-08-31T09:27:40.796Z,20.89
2017-08-31T09:30:08.263Z,20.77
2017-08-31T09:32:35.827Z,20.80
2017-08-31T09:35:03.305Z,20.94
2017-08-31T09:37:30.768Z,20.89
2017-08-31T09:39:58.939Z,21.05
2017-08-31T09:42:26.436Z,21.07
2017-08-31T09:44:53.959Z,20.74
2017-08-31T09:47:21.434Z,20.82
2017-08-31T09:49:48.919Z,20.97
2017-08-31T09:52:16.465Z,20.95
2017-08-31T09:54:43.958Z,21.00
2017-08-31T09:57:11.424Z,21.17
2017-08-31T09:59:38.921Z,21.04
2017-08-31T10:02:06.407Z,21.01
2017-08-31T10:04:33.889Z,21.11
2017-08-31T10:07:01.402Z,21.13
2017-08-31T10:09:28.966Z,21.07
2017-08-31T10:11:56.567Z,21.22
2017-08-31T10:14:24.087Z,21.19
2017-08-31T10:16:51.575Z,21.21
2017-08-31T10:19:19.075Z,21.13
2017-08-31T10:21:46.630Z,20.96
2017-08-31T10:24:14.111Z,21.05
2017-08-31T10:26:41.608Z,21.31
2017-08-31T10:29:09.222Z,21.16
2017-08-31T10:31:36.676Z,21.02
2017-08-31T10:34:04.599Z,20.86
2017-08-31T10:36:32.096Z,21.16
2017-08-31T10:38:59.567Z,21.29
2017-08-31T10:41:27.133Z,21.07
2017-08-31T10:43:55.365Z,21.20
2017-08-31T10:46:22.855Z,21.45
2017-08-31T10:48:50.344Z,21.24
2017-08-31T10:51:17.814Z,21.16
2017-08-31T10:53:45.344Z,21.27
2017-08-31T10:56:13.479Z,21.42
2017-08-31T10:58:40.985Z,21.38
2017-08-31T11:01:09.668Z,20.84
2017-08-31T11:03:37.180Z,20.87
2017-08-31T11:06:05.054Z,20.83
2017-08-31T11:08:32.543Z,20.86
2017-08-31T11:11:00.093Z,20.95
2017-08-31T11:13:27.582Z,20.83
2017-08-31T11:15:55.079Z,20.82
2017-08-31T11:18:22.541Z,20.86
2017-08-31T11:20:50.053Z,20.95
2017-08-31T11:23:17.616Z,21.13
2017-08-31T11:25:45.115Z,21.32
2017-08-31T11:28:13.606Z,21.57
2017-08-31T11:30:41.044Z,21.48
2017-08-31T11:33:08.652Z,21.70
2017-08-31T11:35:36.258Z,21.84
2017-08-31T11:38:03.688Z,22.00
2017-08-31T11:40:31.206Z,22.04
2017-08-31T11:42:58.703Z,22.23
2017-08-31T11:45:26.295Z,22.47
2017-08-31T11:47:53.783Z,22.46
2017-08-31T11:50:21.274Z,22.50
2017-08-31T11:52:48.740Z,22.48
2017-08-31T11:55:16.296Z,22.41
2017-08-31T11:57:44.992Z,22.39
2017-08-31T12:00:12.518Z,22.09
2017-08-31T12:02:40.029Z,21.89
2017-08-31T12:05:07.514Z,21.88
2017-08-31T12:07:35.014Z,21.55
2017-08-31T12:10:02.466Z,21.56
2017-08-31T12:12:29.958Z,21.49
2017-08-31T12:14:57.423Z,21.34
2017-08-31T12:17:25.590Z,21.22
2017-08-31T12:19:53.056Z,21.16
2017-08-31T12:22:20.607Z,20.83
2017-08-31T12:24:48.108Z,20.99
2017-08-31T12:27:15.791Z,21.06
2017-08-31T12:29:43.249Z,21.32
2017-08-31T12:32:11.292Z,21.74
2017-08-31T12:34:38.818Z,21.69
2017-08-31T12:37:06.411Z,21.67
2017-08-31T12:39:33.961Z,21.62
2017-08-31T12:42:02.328Z,21.60
2017-08-31T12:44:29.806Z,21.63
2017-08-31T12:46:57.299Z,21.54
2017-08-31T12:49:24.795Z,21.72
2017-08-31T12:51:52.305Z,21.81
2017-08-31T12:54:19.829Z,21.94
2017-08-31T12:56:47.328Z,21.47
2017-08-31T12:59:15.419Z,22.02
2017-08-31T13:01:42.935Z,21.97
2017-08-31T13:04:10.397Z,22.03
2017-08-31T13:06:39.087Z,21.88
2017-08-31T13:09:07.428Z,21.67
2017-08-31T13:11:34.921Z,21.42
2017-08-31T13:14:02.471Z,21.49
2017-08-31T13:16:29.974Z,21.39
2017-08-31T13:18:58.190Z,21.42
2017-08-31T13:21:25.866Z,21.25
2017-08-31T13:23:53.349Z,21.27
2017-08-31T13:26:20.826Z,21.39
2017-08-31T13:28:48.320Z,21.50
2017-08-31T13:31:15.812Z,21.40
2017-08-31T13:33:43.307Z,21.34
2017-08-31T13:36:10.803Z,21.14
2017-08-31T13:38:39.789Z,20.89
2017-08-31T13:41:07.964Z,20.82
2017-08-31T13:43:35.485Z,21.01
2017-08-31T13:46:02.990Z,21.13
2017-08-31T13:48:30.533Z,21.01
2017-08-31T13:50:58.021Z,21.03
2017-08-31T13:53:25.502Z,21.19
2017-08-31T13:55:53.041Z,20.98
2017-08-31T13:58:20.521Z,21.00
2017-08-31T14:00:48.026Z,20.92
2017-08-31T14:03:15.536Z,20.90
2017-08-31T14:05:43.067Z,21.08
2017-08-31T14:08:10.538Z,21.24
2017-08-31T14:10:38.079Z,21.04
2017-08-31T14:13:05.553Z,20.92
2017-08-31T14:15:33.057Z,21.04
2017-08-31T14:18:00.549Z,20.84
2017-08-31T14:20:28.808Z,21.02
2017-08-31T14:22:56.368Z,21.08
2017-08-31T14:25:23.945Z,20.77
2017-08-31T14:27:51.472Z,20.86
2017-08-31T14:30:18.951Z,20.89
2017-08-31T14:32:46.566Z,20.99
2017-08-31T14:35:14.057Z,21.12
2017-08-31T14:37:42.146Z,21.04
2017-08-31T14:40:09.629Z,20.99
2017-08-31T14:42:37.118Z,20.87
2017-08-31T14:45:05.258Z,20.87
2017-08-31T14:47:32.760Z,20.84
2017-08-31T14:50:00.224Z,20.47
2017-08-31T14:52:27.781Z,20.29
2017-08-31T14:54:55.299Z,20.16
2017-08-31T14:57:23.687Z,20.15
2017-08-31T14:59:51.963Z,20.13
2017-08-31T15:02:19.439Z,20.06
2017-08-31T15:04:46.941Z,19.92
2017-08-31T15:07:14.424Z,20.17
2017-08-31T15:09:41.981Z,20.32
2017-08-31T15:12:10.081Z,20.41
2017-08-31T15:14:37.593Z,20.35
2017-08-31T15:17:05.165Z,20.57
2017-08-31T15:19:33.756Z,20.64
2017-08-31T15:22:01.262Z,20.34
2017-08-31T15:24:28.776Z,20.38
2017-08-31T15:26:56.312Z,20.51
2017-08-31T15:29:23.778Z,20.63
2017-08-31T15:31:51.283Z,20.63
2017-08-31T15:34:18.780Z,20.50
2017-08-31T15:36:47.324Z,20.39
2017-08-31T15:39:14.830Z,20.68
2017-08-31T15:41:42.379Z,20.83
2017-08-31T15:44:09.903Z,21.05
2017-08-31T15:46:38.091Z,21.20
2017-08-31T15:49:05.570Z,21.53
2017-08-31T15:51:33.062Z,21.51
2017-08-31T15:54:00.568Z,21.22
2017-08-31T15:56:28.443Z,21.12
2017-08-31T15:58:56.609Z,21.22
2017-08-31T16:01:24.113Z,21.17
2017-08-31T16:03:51.842Z,21.00
2017-08-31T16:06:19.342Z,20.70
2017-08-31T16:08:46.845Z,20.53
2017-08-31T16:11:14.344Z,20.54
2017-08-31T16:13:42.002Z,20.73
2017-08-31T16:16:09.537Z,20.75
2017-08-31T16:18:37.063Z,20.75
2017-08-31T16:21:05.024Z,20.61
2017-08-31T16:23:32.701Z,20.57
2017-08-31T16:26:00.219Z,20.40
2017-08-31T16:28:27.704Z,20.46
2017-08-31T16:30:55.200Z,20.73
2017-08-31T16:33:22.679Z,20.81
2017-08-31T16:35:50.768Z,20.69
2017-08-31T16:38:18.254Z,20.48
2017-08-31T16:40:46.807Z,20.53
2017-08-31T16:43:14.285Z,20.56
2017-08-31T16:45:41.772Z,20.69
2017-08-31T16:48:09.306Z,20.61
2017-08-31T16:50:36.776Z,20.48
2017-08-31T16:53:04.456Z,20.57
2017-08-31T16:55:32.107Z,20.36
2017-08-31T16:57:59.591Z,20.31
2017-08-31T17:00:27.082Z,20.36
2017-08-31T17:02:54.556Z,20.34
2017-08-31T17:05:22.056Z,20.48
2017-08-31T17:07:49.611Z,20.49
2017-08-31T17:10:17.086Z,20.64
2017-08-31T17:12:44.578Z,20.66
2017-08-31T17:15:12.090Z,20.68
2017-08-31T17:17:39.547Z,20.56
2017-08-31T17:20:07.035Z,20.60
2017-08-31T17:22:34.517Z,20.38
2017-08-31T17:25:02.049Z,20.40
2017-08-31T17:27:29.538Z,20.50
2017-08-31T17:29:57.054Z,20.16
2017-08-31T17:32:24.574Z,20.13
2017-08-31T17:34:52.043Z,19.79
2017-08-31T17:37:19.541Z,19.97
2017-08-31T17:39:47.071Z,20.16
2017-08-31T17:42:14.583Z,20.17
2017-08-31T17:44:42.050Z,20.09
2017-08-31T17:47:09.579Z,20.05
2017-08-31T17:49:37.081Z,20.20
2017-08-31T17:52:04.927Z,20.13
2017-08-31T17:54:32.428Z,20.10
2017-08-31T17:57:00.031Z,20.21
2017-08-31T17:59:27.487Z,20.19
2017-08-31T18:01:54.950Z,20.36
2017-08-31T18:04:22.432Z,20.42
2017-08-31T18:06:49.906Z,20.52
2017-08-31T18:09:17.426Z,20.44
2017-08-31T18:11:44.886Z,20.35
2017-08-31T18:14:12.398Z,20.28
2017-08-31T18:16:39.874Z,20.36
2017-08-31T18:19:07.386Z,20.36
2017-08-31T18:21:34.850Z,20.33
2017-08-31T18:24:02.338Z,20.28
2017-08-31T18:26:29.808Z,20.10
2017-08-31T18:28:57.284Z,20.17
2017-08-31T18:31:24.912Z,20.07
2017-08-31T18:33:52.426Z,19.96
2017-08-31T18:36:19.873Z,19.97
2017-08-31T18:38:47.386Z,20.11
2017-08-31T18:41:14.918Z,20.18
2017-08-31T18:43:42.391Z,19.97
2017-08-31T18:46:09.885Z,19.90
2017-08-31T18:48:37.392Z,20.03
2017-08-31T18:51:05.523Z,18.31
2017-08-31T18:53:32.995Z,20.09
2017-08-31T18:56:00.638Z,20.04
2017-08-31T18:58:28.124Z,19.87
2017-08-31T19:00:55.610Z,19.95
2017-08-31T19:03:23.126Z,20.16
2017-08-31T19:05:50.606Z,20.28
2017-08-31T19:08:18.121Z,20.21
2017-08-31T19:10:45.573Z,20.29
2017-08-31T19:13:13.062Z,20.28
2017-08-31T19:15:40.550Z,20.36
2017-08-31T19:18:08.070Z,20.55
2017-08-31T19:20:35.540Z,20.63
2017-08-31T19:23:03.013Z,20.76
2017-08-31T19:25:30.511Z,20.90
2017-08-31T19:27:57.984Z,20.98
2017-08-31T19:30:25.501Z,20.91
2017-08-31T19:32:52.962Z,21.17
2017-08-31T19:35:20.455Z,21.19
2017-08-31T19:37:47.931Z,21.22
2017-08-31T19:40:15.441Z,21.25
2017-08-31T19:42:42.915Z,21.27
2017-08-31T19:45:10.404Z,21.30
2017-08-31T19:47:37.889Z,21.26
2017-08-31T19:50:05.371Z,21.29
2017-08-31T19:52:32.850Z,21.26
2017-08-31T19:55:00.314Z,21.31
2017-08-31T19:57:27.793Z,21.34
2017-08-31T19:59:55.257Z,21.28
2017-08-31T20:02:22.737Z,21.28
2017-08-31T20:04:50.233Z,21.27
2017-08-31T20:07:17.680Z,21.22
2017-08-31T20:09:45.171Z,21.23
2017-08-31T20:12:12.655Z,21.23
2017-08-31T20:14:40.162Z,21.24
2017-08-31T20:17:07.669Z,21.26
2017-08-31T20:19:35.150Z,21.27
2017-08-31T20:22:02.631Z,21.22
2017-08-31T20:24:30.113Z,21.20
2017-08-31T20:26:57.625Z,21.18
2017-08-31T20:29:25.143Z,21.21
2017-08-31T20:31:52.607Z,21.21
2017-08-31T20:34:20.106Z,21.21
2017-08-31T20:36:47.582Z,21.20
2017-08-31T20:39:15.097Z,21.19
2017-08-31T20:41:42.574Z,21.15
2017-08-31T20:44:10.074Z,21.15
2017-08-31T20:46:37.530Z,20.99
2017-08-31T20:49:05.013Z,20.57
2017-08-31T20:51:32.493Z,20.61
2017-08-31T20:53:59.993Z,20.73
2017-08-31T20:56:27.456Z,20.69
2017-08-31T20:58:54.957Z,20.79
2017-08-31T21:01:22.428Z,20.69
2017-08-31T21:03:49.888Z,20.87
2017-08-31T21:06:17.369Z,20.97
2017-08-31T21:08:44.861Z,20.97
2017-08-31T21:11:12.353Z,20.98
2017-08-31T21:13:39.841Z,20.97
2017-08-31T21:16:07.298Z,20.87
2017-08-31T21:18:34.779Z,20.80
2017-08-31T21:21:02.241Z,20.83
2017-08-31T21:23:29.857Z,20.84
2017-08-31T21:25:57.348Z,20.83
2017-08-31T21:28:24.863Z,20.92
2017-08-31T21:30:52.366Z,20.87
2017-08-31T21:33:19.909Z,20.72
2017-08-31T21:35:47.385Z,20.63
2017-08-31T21:38:14.851Z,20.53
2017-08-31T21:40:42.360Z,20.63
2017-08-31T21:43:09.861Z,20.75
2017-08-31T21:45:37.377Z,20.85
2017-08-31T21:48:05.029Z,20.87
2017-08-31T21:50:32.500Z,20.90
2017-08-31T21:52:59.995Z,20.89
2017-08-31T21:55:27.451Z,20.73
2017-08-31T21:57:54.950Z,20.72
2017-08-31T22:00:22.422Z,20.25
2017-08-31T22:02:49.943Z,19.70
2017-08-31T22:05:17.419Z,19.41
2017-08-31T22:07:45.170Z,19.18
2017-08-31T22:10:12.671Z,18.92
2017-08-31T22:12:40.155Z,18.76
2017-08-31T22:15:07.649Z,18.60
2017-08-31T22:17:35.106Z,18.49
2017-08-31T22:20:02.598Z,18.48
2017-08-31T22:22:30.072Z,18.47
2017-08-31T22:24:57.567Z,18.38
2017-08-31T22:27:25.076Z,18.26
2017-08-31T22:29:52.567Z,18.08
2017-08-31T22:32:20.043Z,17.79
2017-08-31T22:34:47.496Z,17.94
2017-08-31T22:37:14.981Z,18.00
2017-08-31T22:39:42.437Z,17.99
2017-08-31T22:42:09.938Z,17.94
2017-08-31T22:44:37.430Z,17.94
2017-08-31T22:47:04.945Z,17.78
2017-08-31T22:49:32.443Z,17.89
2017-08-31T22:51:59.931Z,17.86
2017-08-31T22:54:27.425Z,17.85
2017-08-31T22:56:54.902Z,17.85
2017-08-31T22:59:22.421Z,17.81
2017-08-31T23:01:49.903Z,17.67
2017-08-31T23:04:17.387Z,17.64
2017-08-31T23:06:44.841Z,17.60
2017-08-31T23:09:12.351Z,17.60
2017-08-31T23:11:39.817Z,17.53
2017-08-31T23:14:07.271Z,17.45
2017-08-31T23:16:34.762Z,17.47
2017-08-31T23:19:02.231Z,17.47
2017-08-31T23:21:29.722Z,17.48
2017-08-31T23:23:57.190Z,17.45
2017-08-31T23:26:24.701Z,17.50
2017-08-31T23:28:52.165Z,17.48
2017-08-31T23:31:19.650Z,17.37
2017-08-31T23:33:47.116Z,17.22
2017-08-31T23:36:14.775Z,17.21
2017-08-31T23:38:42.270Z,17.25
2017-08-31T23:41:09.764Z,17.29
2017-08-31T23:43:37.266Z,17.25
2017-08-31T23:46:05.727Z,17.19
2017-08-31T23:48:33.213Z,17.38
2017-08-31T23:51:00.679Z,17.40
2017-08-31T23:53:28.203Z,17.34
2017-08-31T23:55:55.700Z,17.31
2017-08-31T23:58:23.181Z,17.17
